Arctic Taglu — CY8968 — position and weather

sailwx.info

Track history (hours):
 
Tides and Currents Weather Stations Pressure Air Temp Water Temp Dewpoint Dewpoint Depression Visibility Wind Speed Wind Dir Waves Ship Positions

Arctic Taglu

Last reported at 2014-Oct-02 07:33 UTC. Time now 2014-Oct-02 08:25 UTC.
Position N 49°13' W 123°46'.

Length 33 m; draft 6 m.

Type: Tug. MMSI: 316003483.

Date/timePositionNaut miles runAvg speedWind from/ knotsBaromVisibWave heightAir tempDewpointWater temp
2014-Oct-02 07:33N 49°13' W 123°46'9 9.2
2014-Oct-02 06:33N 49°10' W 123°33'10 9.6
2014-Oct-02 05:34N 49°06' W 123°19'10 9.9
2014-Oct-02 04:33N 49°08' W 123°04'2 1.6
2014-Oct-02 03:33N 49°09' W 123°02'0 0.0
2014-Oct-02 02:33N 49°09' W 123°02'0 0.0
2014-Oct-02 01:33N 49°09' W 123°02'0 0.0
2014-Oct-02 00:33N 49°09' W 123°02'0 0.0
2014-Oct-01 23:33N 49°09' W 123°02'0 0.0
2014-Oct-01 22:33N 49°09' W 123°02'0 0.0
2014-Oct-01 21:33N 49°09' W 123°02'0 0.0
2014-Oct-01 20:33N 49°09' W 123°02'0 0.0
2014-Oct-01 19:33N 49°09' W 123°02'0 0.0
2014-Oct-01 18:33N 49°09' W 123°02'0 0.0
2014-Oct-01 17:33N 49°09' W 123°02'0 0.0
2014-Oct-01 16:33N 49°09' W 123°02'0 0.0
2014-Oct-01 15:33N 49°09' W 123°02'0 0.0
2014-Oct-01 14:33N 49°09' W 123°02'4 4.3
2014-Oct-01 13:33N 49°06' W 123°08'7 7.2
2014-Oct-01 12:33N 49°06' W 123°19'1010.1
2014-Oct-01 11:33N 49°09' W 123°34'1110.7
2014-Oct-01 10:33N 49°13' W 123°49'5 5.4
2014-Oct-01 09:33N 49°10' W 123°56'0 0.0
2014-Oct-01 08:33N 49°10' W 123°56'6 6.3
2014-Oct-01 07:33N 49°12' W 123°47'9 9.2
2014-Oct-01 06:33N 49°09' W 123°33'9 9.4
2014-Oct-01 05:33N 49°06' W 123°19'10 9.6
2014-Oct-01 04:33N 49°07' W 123°05'2 2.2
2014-Oct-01 03:33N 49°09' W 123°02'0 0.0
2014-Oct-01 02:33N 49°09' W 123°02'0 0.1
2014-Oct-01 01:33N 49°09' W 123°02'0 0.0
2014-Oct-01 00:33N 49°09' W 123°02'0 0.0
2014-Sep-30 23:33N 49°09' W 123°02'0 0.0
2014-Sep-30 22:33N 49°09' W 123°02'0 0.0
2014-Sep-30 21:33N 49°09' W 123°02'0 0.0
2014-Sep-30 20:33N 49°09' W 123°02'0 0.0
2014-Sep-30 19:33N 49°09' W 123°02'0 0.0
2014-Sep-30 18:33N 49°09' W 123°02'0 0.0
2014-Sep-30 17:33N 49°09' W 123°02'0 0.0
2014-Sep-30 16:33N 49°09' W 123°02'0 0.1
2014-Sep-30 15:33N 49°09' W 123°02'0 0.0
2014-Sep-30 14:33N 49°09' W 123°02'5 4.9
2014-Sep-30 13:33N 49°07' W 123°09'8 8.2
2014-Sep-30 12:33N 49°06' W 123°21'10 9.8
2014-Sep-30 11:33N 49°10' W 123°36'10 9.7
2014-Sep-30 10:33N 49°13' W 123°50'5 4.8
2014-Sep-30 09:33N 49°10' W 123°56'0 0.0
2014-Sep-30 08:33N 49°10' W 123°56'7 6.7
2014-Sep-30 07:33N 49°13' W 123°47'9 9.4
2014-Sep-30 06:33N 49°10' W 123°33'10 9.7
2014-Sep-30 05:33N 49°06' W 123°20'10 9.7
2014-Sep-30 04:33N 49°07' W 123°05'2 2.2
2014-Sep-30 03:33N 49°09' W 123°02'0 0.1
2014-Sep-30 02:32N 49°09' W 123°02'0 0.0
2014-Sep-30 01:32N 49°09' W 123°02'0 0.0
2014-Sep-30 00:32N 49°09' W 123°02'0 0.0
2014-Sep-29 23:32N 49°09' W 123°02'0 0.0
2014-Sep-29 22:32N 49°09' W 123°02'0 0.0
2014-Sep-29 21:32N 49°09' W 123°02'0 0.0
2014-Sep-29 20:32N 49°09' W 123°02'0 0.0
2014-Sep-29 19:32N 49°09' W 123°02'0 0.0
2014-Sep-29 18:32N 49°09' W 123°02'0 0.0
2014-Sep-29 17:32N 49°09' W 123°02'0 0.0
2014-Sep-29 16:32N 49°09' W 123°02'0 0.0
2014-Sep-29 15:32N 49°09' W 123°02'0 0.0
2014-Sep-29 14:32N 49°09' W 123°02'0 0.0
2014-Sep-29 13:32N 49°09' W 123°02'0 0.0
2014-Sep-29 12:32N 49°09' W 123°02'0 0.0
2014-Sep-29 11:32N 49°09' W 123°02'0 0.0
2014-Sep-29 10:32N 49°09' W 123°02'0 0.0
2014-Sep-29 09:32N 49°09' W 123°02'0 0.0
2014-Sep-29 08:32N 49°09' W 123°02'0 0.0
2014-Sep-29 07:32N 49°09' W 123°02'0 0.0
2014-Sep-29 06:32N 49°09' W 123°02'0 0.0
2014-Sep-29 05:32N 49°09' W 123°02'0 0.0
2014-Sep-29 04:32N 49°09' W 123°02'0 0.0
2014-Sep-29 03:32N 49°09' W 123°02'0 0.0
2014-Sep-29 02:32N 49°09' W 123°02'0 0.0
2014-Sep-29 01:32N 49°09' W 123°02'0 0.0
2014-Sep-29 00:32N 49°09' W 123°02'0 0.0
2014-Sep-28 23:32N 49°09' W 123°02'0 0.0
2014-Sep-28 22:32N 49°09' W 123°02'0 0.0
2014-Sep-28 21:32N 49°09' W 123°02'0 0.0
2014-Sep-28 20:32N 49°09' W 123°02'0 0.0
2014-Sep-28 19:32N 49°09' W 123°02'0 0.0
2014-Sep-28 18:32N 49°09' W 123°02'0 0.0
2014-Sep-28 17:32N 49°09' W 123°02'0 0.0
2014-Sep-28 16:32N 49°09' W 123°02'0 0.0
2014-Sep-28 15:32N 49°09' W 123°02'0 0.0
2014-Sep-28 14:32N 49°09' W 123°02'0 0.0
2014-Sep-28 13:32N 49°09' W 123°02'0 0.0
2014-Sep-28 12:32N 49°09' W 123°02'0 0.0
2014-Sep-28 11:32N 49°09' W 123°02'0 0.0
2014-Sep-28 10:32N 49°09' W 123°02'0 0.0
2014-Sep-28 09:32N 49°09' W 123°02'0 0.0
2014-Sep-28 08:32N 49°09' W 123°02'0 0.0
2014-Sep-28 07:32N 49°09' W 123°02'0 0.0
2014-Sep-28 06:32N 49°09' W 123°02'0 0.0
2014-Sep-28 05:32N 49°09' W 123°02'0 0.0
2014-Sep-28 04:32N 49°09' W 123°02'0 0.0
2014-Sep-28 03:32N 49°09' W 123°02'0 0.0
2014-Sep-28 02:32N 49°09' W 123°02'0 0.0
2014-Sep-28 01:32N 49°09' W 123°02'0 0.0
2014-Sep-28 00:32N 49°09' W 123°02'0 0.0
2014-Sep-27 23:32N 49°09' W 123°02'0 0.0
2014-Sep-27 22:32N 49°09' W 123°02'0 0.0
2014-Sep-27 21:32N 49°09' W 123°02'0 0.0
2014-Sep-27 20:32N 49°09' W 123°02'0 0.0
2014-Sep-27 19:32N 49°09' W 123°02'0 0.0
2014-Sep-27 18:32N 49°09' W 123°02'0 0.0
2014-Sep-27 17:32N 49°09' W 123°02'0 0.0
2014-Sep-27 16:32N 49°09' W 123°02'0 0.0
2014-Sep-27 15:32N 49°09' W 123°02'0 0.0
2014-Sep-27 14:33N 49°09' W 123°02'4 4.4
2014-Sep-27 13:33N 49°06' W 123°08'9 9.0
2014-Sep-27 12:33N 49°06' W 123°22'9 9.4
2014-Sep-27 11:33N 49°10' W 123°35'10 9.7
2014-Sep-27 10:33N 49°13' W 123°49'5 5.1
2014-Sep-27 09:32N 49°10' W 123°56'0 0.0
2014-Sep-27 08:33N 49°10' W 123°56'6 5.7
2014-Sep-27 07:32N 49°13' W 123°49'9 9.5
2014-Sep-27 06:33N 49°11' W 123°35'10 9.9
2014-Sep-27 05:33N 49°07' W 123°21'1010.1
2014-Sep-27 04:33N 49°07' W 123°06'3 2.9
2014-Sep-27 03:33N 49°09' W 123°02'0 0.0
2014-Sep-27 02:33N 49°09' W 123°02'0 0.0
2014-Sep-27 01:33N 49°09' W 123°02'0 0.0
2014-Sep-27 00:33N 49°09' W 123°02'0 0.0
2014-Sep-26 23:33N 49°09' W 123°02'0 0.0
2014-Sep-26 22:33N 49°09' W 123°02'0 0.0
2014-Sep-26 21:33N 49°09' W 123°02'0 0.0
2014-Sep-26 20:33N 49°09' W 123°02'0 0.0
2014-Sep-26 19:33N 49°09' W 123°02'0 0.0
2014-Sep-26 18:34N 49°09' W 123°02'0 0.0
2014-Sep-26 17:33N 49°09' W 123°02'0 0.0
2014-Sep-26 16:33N 49°09' W 123°02'0 0.0
2014-Sep-26 15:33N 49°09' W 123°02'0 0.0
2014-Sep-26 14:34N 49°09' W 123°02'5 4.5
2014-Sep-26 13:33N 49°06' W 123°08'9 9.1
2014-Sep-26 12:33N 49°07' W 123°22'9 9.0
2014-Sep-26 11:33N 49°10' W 123°35'9 9.3
2014-Sep-26 10:33N 49°13' W 123°48'6 5.7
2014-Sep-26 09:34N 49°10' W 123°56'0 0.0
2014-Sep-26 08:33N 49°10' W 123°56'5 5.5
2014-Sep-26 07:33N 49°13' W 123°49'10 9.8
2014-Sep-26 06:33N 49°10' W 123°35'1010.0
2014-Sep-26 05:33N 49°06' W 123°21'1010.3
2014-Sep-26 04:33N 49°07' W 123°05'2 2.2
2014-Sep-26 03:33N 49°09' W 123°02'0 0.0
2014-Sep-26 02:33N 49°09' W 123°02'0 0.0
2014-Sep-26 01:33N 49°09' W 123°02'0 0.0
2014-Sep-26 00:33N 49°09' W 123°02'0 0.0
2014-Sep-25 23:33N 49°09' W 123°02'0 0.0
2014-Sep-25 22:33N 49°09' W 123°02'0 0.0
2014-Sep-25 21:33N 49°09' W 123°02'0 0.0
2014-Sep-25 20:33N 49°09' W 123°02'0 0.0
2014-Sep-25 19:33N 49°09' W 123°02'0 0.0
2014-Sep-25 18:33N 49°09' W 123°02'0 0.0
2014-Sep-25 17:33N 49°09' W 123°02'0 0.0
2014-Sep-25 16:33N 49°09' W 123°02'0 0.0
2014-Sep-25 15:33N 49°09' W 123°02'0 0.0
2014-Sep-25 14:33N 49°09' W 123°02'4 4.4
2014-Sep-25 13:33N 49°06' W 123°08'9 9.1
2014-Sep-25 12:33N 49°07' W 123°22'9 9.2
2014-Sep-25 11:33N 49°10' W 123°35'9 9.5
2014-Sep-25 10:33N 49°13' W 123°49'5 5.4
2014-Sep-25 09:33N 49°10' W 123°56'0 0.0
2014-Sep-25 08:34N 49°10' W 123°56'6 6.2
2014-Sep-25 07:33N 49°13' W 123°48'9 9.4
2014-Sep-25 06:33N 49°10' W 123°34'10 9.6
2014-Sep-25 05:33N 49°07' W 123°21'1110.6
2014-Sep-25 04:33N 49°07' W 123°05'2 2.0
2014-Sep-25 03:33N 49°09' W 123°02'0 0.0
2014-Sep-25 02:33N 49°09' W 123°02'0 0.0
2014-Sep-25 01:33N 49°09' W 123°02'0 0.0
2014-Sep-25 00:33N 49°09' W 123°02'0 0.0
2014-Sep-24 23:33N 49°09' W 123°02'0 0.0
2014-Sep-24 22:33N 49°09' W 123°02'0 0.0
2014-Sep-24 21:33N 49°09' W 123°02'0 0.0
2014-Sep-24 20:33N 49°09' W 123°02'0 0.0
2014-Sep-24 19:33N 49°09' W 123°02'0 0.0
2014-Sep-24 18:33N 49°09' W 123°02'0 0.0
2014-Sep-24 17:33N 49°09' W 123°02'0 0.0
2014-Sep-24 16:33N 49°09' W 123°02'0 0.0
2014-Sep-24 15:33N 49°09' W 123°02'0 0.0
2014-Sep-24 14:33N 49°09' W 123°02'6 5.8
2014-Sep-24 13:33N 49°07' W 123°11'9 8.9
2014-Sep-24 12:33N 49°07' W 123°24'9 9.2
2014-Sep-24 11:33N 49°11' W 123°37'9 9.2
2014-Sep-24 10:33N 49°13' W 123°51'4 4.0
2014-Sep-24 09:33N 49°10' W 123°56'0 0.0
2014-Sep-24 08:33N 49°10' W 123°56'5 5.1
2014-Sep-24 07:33N 49°13' W 123°50'10 9.8
2014-Sep-24 06:33N 49°11' W 123°35'1010.4
2014-Sep-24 05:33N 49°06' W 123°21'1110.6
2014-Sep-24 04:33N 49°07' W 123°05'2 2.0
2014-Sep-24 03:33N 49°09' W 123°02'0 0.0
2014-Sep-24 02:33N 49°09' W 123°02'0 0.0
2014-Sep-24 01:33N 49°09' W 123°02'0 0.0
2014-Sep-24 00:33N 49°09' W 123°02'0 0.0
2014-Sep-23 23:33N 49°09' W 123°02'0 0.0
2014-Sep-23 22:33N 49°09' W 123°02'0 0.0
2014-Sep-23 21:33N 49°09' W 123°02'0 0.0
2014-Sep-23 20:34N 49°09' W 123°02'0 0.0
2014-Sep-23 19:33N 49°09' W 123°02'0 0.0
2014-Sep-23 18:33N 49°09' W 123°02'0 0.0
2014-Sep-23 17:34N 49°09' W 123°02'0 0.0
2014-Sep-23 16:33N 49°09' W 123°02'0 0.0
2014-Sep-23 15:33N 49°09' W 123°02'0 0.0
2014-Sep-23 14:33N 49°09' W 123°02'4 4.0
2014-Sep-23 13:33N 49°07' W 123°07'9 8.9
2014-Sep-23 12:33N 49°06' W 123°21'10 9.6
2014-Sep-23 11:33N 49°10' W 123°35'10 9.7
2014-Sep-23 10:33N 49°13' W 123°49'6 5.5
2014-Sep-23 09:33N 49°10' W 123°56'0 0.0
2014-Sep-23 08:33N 49°10' W 123°56'4 4.0
2014-Sep-23 07:33N 49°12' W 123°51'10 9.9
2014-Sep-23 06:33N 49°10' W 123°36'1010.0
2014-Sep-23 05:33N 49°06' W 123°22'1110.8
2014-Sep-23 04:33N 49°07' W 123°06'3 2.8
2014-Sep-23 03:33N 49°09' W 123°02'0 0.0
2014-Sep-23 02:33N 49°09' W 123°02'0 0.0
2014-Sep-23 01:32N 49°09' W 123°02'0 0.0
2014-Sep-23 00:32N 49°09' W 123°02'0 0.0
2014-Sep-22 23:32N 49°09' W 123°02'0 0.0
2014-Sep-22 22:32N 49°09' W 123°02'0 0.0
2014-Sep-22 21:32N 49°09' W 123°02'0 0.0
2014-Sep-22 20:32N 49°09' W 123°02'0 0.0
2014-Sep-22 19:32N 49°09' W 123°02'0 0.0
2014-Sep-22 18:32N 49°09' W 123°02'0 0.0
2014-Sep-22 17:32N 49°09' W 123°02'0 0.0
2014-Sep-22 16:32N 49°09' W 123°02'0 0.0
2014-Sep-22 15:32N 49°09' W 123°02'0 0.0
2014-Sep-22 14:32N 49°09' W 123°02'0 0.0
2014-Sep-22 13:32N 49°09' W 123°02'0 0.0
2014-Sep-22 12:32N 49°09' W 123°02'0 0.0
2014-Sep-22 11:32N 49°09' W 123°02'0 0.0
2014-Sep-22 10:32N 49°09' W 123°02'0 0.0
2014-Sep-22 09:32N 49°09' W 123°02'0 0.0
2014-Sep-22 08:32N 49°09' W 123°02'  
Track history (hours):
 
Tides and Currents Weather Stations Pressure Air Temp Water Temp Dewpoint Dewpoint Depression Visibility Wind Speed Wind Dir Waves Ship Positions

Arctic Taglu

Last reported at 2014-Oct-02 07:33 UTC. Time now 2014-Oct-02 08:25 UTC.
Position N 49°13' W 123°46'.

Length 33 m; draft 6 m.

Type: Tug. MMSI: 316003483.

Date/timePositionNaut miles runAvg speedWind from/ knotsBaromVisibWave heightAir tempDewpointWater temp
2014-Oct-02 07:33N 49°13' W 123°46'9 9.2
2014-Oct-02 06:33N 49°10' W 123°33'10 9.6
2014-Oct-02 05:34N 49°06' W 123°19'10 9.9
2014-Oct-02 04:33N 49°08' W 123°04'2 1.6
2014-Oct-02 03:33N 49°09' W 123°02'0 0.0
2014-Oct-02 02:33N 49°09' W 123°02'0 0.0
2014-Oct-02 01:33N 49°09' W 123°02'0 0.0
2014-Oct-02 00:33N 49°09' W 123°02'0 0.0
2014-Oct-01 23:33N 49°09' W 123°02'0 0.0
2014-Oct-01 22:33N 49°09' W 123°02'0 0.0
2014-Oct-01 21:33N 49°09' W 123°02'0 0.0
2014-Oct-01 20:33N 49°09' W 123°02'0 0.0
2014-Oct-01 19:33N 49°09' W 123°02'0 0.0
2014-Oct-01 18:33N 49°09' W 123°02'0 0.0
2014-Oct-01 17:33N 49°09' W 123°02'0 0.0
2014-Oct-01 16:33N 49°09' W 123°02'0 0.0
2014-Oct-01 15:33N 49°09' W 123°02'0 0.0
2014-Oct-01 14:33N 49°09' W 123°02'4 4.3
2014-Oct-01 13:33N 49°06' W 123°08'7 7.2
2014-Oct-01 12:33N 49°06' W 123°19'1010.1
2014-Oct-01 11:33N 49°09' W 123°34'1110.7
2014-Oct-01 10:33N 49°13' W 123°49'5 5.4
2014-Oct-01 09:33N 49°10' W 123°56'0 0.0
2014-Oct-01 08:33N 49°10' W 123°56'6 6.3
2014-Oct-01 07:33N 49°12' W 123°47'9 9.2
2014-Oct-01 06:33N 49°09' W 123°33'9 9.4
2014-Oct-01 05:33N 49°06' W 123°19'10 9.6
2014-Oct-01 04:33N 49°07' W 123°05'2 2.2
2014-Oct-01 03:33N 49°09' W 123°02'0 0.0
2014-Oct-01 02:33N 49°09' W 123°02'0 0.1
2014-Oct-01 01:33N 49°09' W 123°02'0 0.0
2014-Oct-01 00:33N 49°09' W 123°02'0 0.0
2014-Sep-30 23:33N 49°09' W 123°02'0 0.0
2014-Sep-30 22:33N 49°09' W 123°02'0 0.0
2014-Sep-30 21:33N 49°09' W 123°02'0 0.0
2014-Sep-30 20:33N 49°09' W 123°02'0 0.0
2014-Sep-30 19:33N 49°09' W 123°02'0 0.0
2014-Sep-30 18:33N 49°09' W 123°02'0 0.0
2014-Sep-30 17:33N 49°09' W 123°02'0 0.0
2014-Sep-30 16:33N 49°09' W 123°02'0 0.1
2014-Sep-30 15:33N 49°09' W 123°02'0 0.0
2014-Sep-30 14:33N 49°09' W 123°02'5 4.9
2014-Sep-30 13:33N 49°07' W 123°09'8 8.2
2014-Sep-30 12:33N 49°06' W 123°21'10 9.8
2014-Sep-30 11:33N 49°10' W 123°36'10 9.7
2014-Sep-30 10:33N 49°13' W 123°50'5 4.8
2014-Sep-30 09:33N 49°10' W 123°56'0 0.0
2014-Sep-30 08:33N 49°10' W 123°56'7 6.7
2014-Sep-30 07:33N 49°13' W 123°47'9 9.4
2014-Sep-30 06:33N 49°10' W 123°33'10 9.7
2014-Sep-30 05:33N 49°06' W 123°20'10 9.7
2014-Sep-30 04:33N 49°07' W 123°05'2 2.2
2014-Sep-30 03:33N 49°09' W 123°02'0 0.1
2014-Sep-30 02:32N 49°09' W 123°02'0 0.0
2014-Sep-30 01:32N 49°09' W 123°02'0 0.0
2014-Sep-30 00:32N 49°09' W 123°02'0 0.0
2014-Sep-29 23:32N 49°09' W 123°02'0 0.0
2014-Sep-29 22:32N 49°09' W 123°02'0 0.0
2014-Sep-29 21:32N 49°09' W 123°02'0 0.0
2014-Sep-29 20:32N 49°09' W 123°02'0 0.0
2014-Sep-29 19:32N 49°09' W 123°02'0 0.0
2014-Sep-29 18:32N 49°09' W 123°02'0 0.0
2014-Sep-29 17:32N 49°09' W 123°02'0 0.0
2014-Sep-29 16:32N 49°09' W 123°02'0 0.0
2014-Sep-29 15:32N 49°09' W 123°02'0 0.0
2014-Sep-29 14:32N 49°09' W 123°02'0 0.0
2014-Sep-29 13:32N 49°09' W 123°02'0 0.0
2014-Sep-29 12:32N 49°09' W 123°02'0 0.0
2014-Sep-29 11:32N 49°09' W 123°02'0 0.0
2014-Sep-29 10:32N 49°09' W 123°02'0 0.0
2014-Sep-29 09:32N 49°09' W 123°02'0 0.0
2014-Sep-29 08:32N 49°09' W 123°02'0 0.0
2014-Sep-29 07:32N 49°09' W 123°02'0 0.0
2014-Sep-29 06:32N 49°09' W 123°02'0 0.0
2014-Sep-29 05:32N 49°09' W 123°02'0 0.0
2014-Sep-29 04:32N 49°09' W 123°02'0 0.0
2014-Sep-29 03:32N 49°09' W 123°02'0 0.0
2014-Sep-29 02:32N 49°09' W 123°02'0 0.0
2014-Sep-29 01:32N 49°09' W 123°02'0 0.0
2014-Sep-29 00:32N 49°09' W 123°02'0 0.0
2014-Sep-28 23:32N 49°09' W 123°02'0 0.0
2014-Sep-28 22:32N 49°09' W 123°02'0 0.0
2014-Sep-28 21:32N 49°09' W 123°02'0 0.0
2014-Sep-28 20:32N 49°09' W 123°02'0 0.0
2014-Sep-28 19:32N 49°09' W 123°02'0 0.0
2014-Sep-28 18:32N 49°09' W 123°02'0 0.0
2014-Sep-28 17:32N 49°09' W 123°02'0 0.0
2014-Sep-28 16:32N 49°09' W 123°02'0 0.0
2014-Sep-28 15:32N 49°09' W 123°02'0 0.0
2014-Sep-28 14:32N 49°09' W 123°02'0 0.0
2014-Sep-28 13:32N 49°09' W 123°02'0 0.0
2014-Sep-28 12:32N 49°09' W 123°02'0 0.0
2014-Sep-28 11:32N 49°09' W 123°02'0 0.0
2014-Sep-28 10:32N 49°09' W 123°02'0 0.0
2014-Sep-28 09:32N 49°09' W 123°02'0 0.0
2014-Sep-28 08:32N 49°09' W 123°02'0 0.0
2014-Sep-28 07:32N 49°09' W 123°02'0 0.0
2014-Sep-28 06:32N 49°09' W 123°02'0 0.0
2014-Sep-28 05:32N 49°09' W 123°02'0 0.0
2014-Sep-28 04:32N 49°09' W 123°02'0 0.0
2014-Sep-28 03:32N 49°09' W 123°02'0 0.0
2014-Sep-28 02:32N 49°09' W 123°02'0 0.0
2014-Sep-28 01:32N 49°09' W 123°02'0 0.0
2014-Sep-28 00:32N 49°09' W 123°02'0 0.0
2014-Sep-27 23:32N 49°09' W 123°02'0 0.0
2014-Sep-27 22:32N 49°09' W 123°02'0 0.0
2014-Sep-27 21:32N 49°09' W 123°02'0 0.0
2014-Sep-27 20:32N 49°09' W 123°02'0 0.0
2014-Sep-27 19:32N 49°09' W 123°02'0 0.0
2014-Sep-27 18:32N 49°09' W 123°02'0 0.0
2014-Sep-27 17:32N 49°09' W 123°02'0 0.0
2014-Sep-27 16:32N 49°09' W 123°02'0 0.0
2014-Sep-27 15:32N 49°09' W 123°02'0 0.0
2014-Sep-27 14:33N 49°09' W 123°02'4 4.4
2014-Sep-27 13:33N 49°06' W 123°08'9 9.0
2014-Sep-27 12:33N 49°06' W 123°22'9 9.4
2014-Sep-27 11:33N 49°10' W 123°35'10 9.7
2014-Sep-27 10:33N 49°13' W 123°49'5 5.1
2014-Sep-27 09:32N 49°10' W 123°56'0 0.0
2014-Sep-27 08:33N 49°10' W 123°56'6 5.7
2014-Sep-27 07:32N 49°13' W 123°49'9 9.5
2014-Sep-27 06:33N 49°11' W 123°35'10 9.9
2014-Sep-27 05:33N 49°07' W 123°21'1010.1
2014-Sep-27 04:33N 49°07' W 123°06'3 2.9
2014-Sep-27 03:33N 49°09' W 123°02'0 0.0
2014-Sep-27 02:33N 49°09' W 123°02'0 0.0
2014-Sep-27 01:33N 49°09' W 123°02'0 0.0
2014-Sep-27 00:33N 49°09' W 123°02'0 0.0
2014-Sep-26 23:33N 49°09' W 123°02'0 0.0
2014-Sep-26 22:33N 49°09' W 123°02'0 0.0
2014-Sep-26 21:33N 49°09' W 123°02'0 0.0
2014-Sep-26 20:33N 49°09' W 123°02'0 0.0
2014-Sep-26 19:33N 49°09' W 123°02'0 0.0
2014-Sep-26 18:34N 49°09' W 123°02'0 0.0
2014-Sep-26 17:33N 49°09' W 123°02'0 0.0
2014-Sep-26 16:33N 49°09' W 123°02'0 0.0
2014-Sep-26 15:33N 49°09' W 123°02'0 0.0
2014-Sep-26 14:34N 49°09' W 123°02'5 4.5
2014-Sep-26 13:33N 49°06' W 123°08'9 9.1
2014-Sep-26 12:33N 49°07' W 123°22'9 9.0
2014-Sep-26 11:33N 49°10' W 123°35'9 9.3
2014-Sep-26 10:33N 49°13' W 123°48'6 5.7
2014-Sep-26 09:34N 49°10' W 123°56'0 0.0
2014-Sep-26 08:33N 49°10' W 123°56'5 5.5
2014-Sep-26 07:33N 49°13' W 123°49'10 9.8
2014-Sep-26 06:33N 49°10' W 123°35'1010.0
2014-Sep-26 05:33N 49°06' W 123°21'1010.3
2014-Sep-26 04:33N 49°07' W 123°05'2 2.2
2014-Sep-26 03:33N 49°09' W 123°02'0 0.0
2014-Sep-26 02:33N 49°09' W 123°02'0 0.0
2014-Sep-26 01:33N 49°09' W 123°02'0 0.0
2014-Sep-26 00:33N 49°09' W 123°02'0 0.0
2014-Sep-25 23:33N 49°09' W 123°02'0 0.0
2014-Sep-25 22:33N 49°09' W 123°02'0 0.0
2014-Sep-25 21:33N 49°09' W 123°02'0 0.0
2014-Sep-25 20:33N 49°09' W 123°02'0 0.0
2014-Sep-25 19:33N 49°09' W 123°02'0 0.0
2014-Sep-25 18:33N 49°09' W 123°02'0 0.0
2014-Sep-25 17:33N 49°09' W 123°02'0 0.0
2014-Sep-25 16:33N 49°09' W 123°02'0 0.0
2014-Sep-25 15:33N 49°09' W 123°02'0 0.0
2014-Sep-25 14:33N 49°09' W 123°02'4 4.4
2014-Sep-25 13:33N 49°06' W 123°08'9 9.1
2014-Sep-25 12:33N 49°07' W 123°22'9 9.2
2014-Sep-25 11:33N 49°10' W 123°35'9 9.5
2014-Sep-25 10:33N 49°13' W 123°49'5 5.4
2014-Sep-25 09:33N 49°10' W 123°56'0 0.0
2014-Sep-25 08:34N 49°10' W 123°56'6 6.2
2014-Sep-25 07:33N 49°13' W 123°48'9 9.4
2014-Sep-25 06:33N 49°10' W 123°34'10 9.6
2014-Sep-25 05:33N 49°07' W 123°21'1110.6
2014-Sep-25 04:33N 49°07' W 123°05'2 2.0
2014-Sep-25 03:33N 49°09' W 123°02'0 0.0
2014-Sep-25 02:33N 49°09' W 123°02'0 0.0
2014-Sep-25 01:33N 49°09' W 123°02'0 0.0
2014-Sep-25 00:33N 49°09' W 123°02'0 0.0
2014-Sep-24 23:33N 49°09' W 123°02'0 0.0
2014-Sep-24 22:33N 49°09' W 123°02'0 0.0
2014-Sep-24 21:33N 49°09' W 123°02'0 0.0
2014-Sep-24 20:33N 49°09' W 123°02'0 0.0
2014-Sep-24 19:33N 49°09' W 123°02'0 0.0
2014-Sep-24 18:33N 49°09' W 123°02'0 0.0
2014-Sep-24 17:33N 49°09' W 123°02'0 0.0
2014-Sep-24 16:33N 49°09' W 123°02'0 0.0
2014-Sep-24 15:33N 49°09' W 123°02'0 0.0
2014-Sep-24 14:33N 49°09' W 123°02'6 5.8
2014-Sep-24 13:33N 49°07' W 123°11'9 8.9
2014-Sep-24 12:33N 49°07' W 123°24'9 9.2
2014-Sep-24 11:33N 49°11' W 123°37'9 9.2
2014-Sep-24 10:33N 49°13' W 123°51'4 4.0
2014-Sep-24 09:33N 49°10' W 123°56'0 0.0
2014-Sep-24 08:33N 49°10' W 123°56'5 5.1
2014-Sep-24 07:33N 49°13' W 123°50'10 9.8
2014-Sep-24 06:33N 49°11' W 123°35'1010.4
2014-Sep-24 05:33N 49°06' W 123°21'1110.6
2014-Sep-24 04:33N 49°07' W 123°05'2 2.0
2014-Sep-24 03:33N 49°09' W 123°02'0 0.0
2014-Sep-24 02:33N 49°09' W 123°02'0 0.0
2014-Sep-24 01:33N 49°09' W 123°02'0 0.0
2014-Sep-24 00:33N 49°09' W 123°02'0 0.0
2014-Sep-23 23:33N 49°09' W 123°02'0 0.0
2014-Sep-23 22:33N 49°09' W 123°02'0 0.0
2014-Sep-23 21:33N 49°09' W 123°02'0 0.0
2014-Sep-23 20:34N 49°09' W 123°02'0 0.0
2014-Sep-23 19:33N 49°09' W 123°02'0 0.0
2014-Sep-23 18:33N 49°09' W 123°02'0 0.0
2014-Sep-23 17:34N 49°09' W 123°02'0 0.0
2014-Sep-23 16:33N 49°09' W 123°02'0 0.0
2014-Sep-23 15:33N 49°09' W 123°02'0 0.0
2014-Sep-23 14:33N 49°09' W 123°02'4 4.0
2014-Sep-23 13:33N 49°07' W 123°07'9 8.9
2014-Sep-23 12:33N 49°06' W 123°21'10 9.6
2014-Sep-23 11:33N 49°10' W 123°35'10 9.7
2014-Sep-23 10:33N 49°13' W 123°49'6 5.5
2014-Sep-23 09:33N 49°10' W 123°56'0 0.0
2014-Sep-23 08:33N 49°10' W 123°56'4 4.0
2014-Sep-23 07:33N 49°12' W 123°51'10 9.9
2014-Sep-23 06:33N 49°10' W 123°36'1010.0
2014-Sep-23 05:33N 49°06' W 123°22'1110.8
2014-Sep-23 04:33N 49°07' W 123°06'3 2.8
2014-Sep-23 03:33N 49°09' W 123°02'0 0.0
2014-Sep-23 02:33N 49°09' W 123°02'0 0.0
2014-Sep-23 01:32N 49°09' W 123°02'0 0.0
2014-Sep-23 00:32N 49°09' W 123°02'0 0.0
2014-Sep-22 23:32N 49°09' W 123°02'0 0.0
2014-Sep-22 22:32N 49°09' W 123°02'0 0.0
2014-Sep-22 21:32N 49°09' W 123°02'0 0.0
2014-Sep-22 20:32N 49°09' W 123°02'0 0.0
2014-Sep-22 19:32N 49°09' W 123°02'0 0.0
2014-Sep-22 18:32N 49°09' W 123°02'0 0.0
2014-Sep-22 17:32N 49°09' W 123°02'0 0.0
2014-Sep-22 16:32N 49°09' W 123°02'0 0.0
2014-Sep-22 15:32N 49°09' W 123°02'0 0.0
2014-Sep-22 14:32N 49°09' W 123°02'0 0.0
2014-Sep-22 13:32N 49°09' W 123°02'0 0.0
2014-Sep-22 12:32N 49°09' W 123°02'0 0.0
2014-Sep-22 11:32N 49°09' W 123°02'0 0.0
2014-Sep-22 10:32N 49°09' W 123°02'0 0.0
2014-Sep-22 09:32N 49°09' W 123°02'0 0.0
2014-Sep-22 08:32N 49°09' W 123°02'  

Dump ship's entire track history